Waldo, Wisconsin
Current Conditions -  °F | °C
As of 2:36 PM on Friday 28 Nov 2014 (Local Time) from KSBM Reporting Station
Overcast Overcast  
Wind Chill: -7°   Ceiling: 2000
Heat Index: -1°   Visibility: 10mi
Dew Point: -5°   Wind: 14mph
Humidity: 75%   Direction: 180°S
Pressure: 29.98"   Gusts: NA
Location:  43.67°N, 87.95°W
Report Text: KSBM 282036Z AUTO 18012KT 10SM BKN020 BKN035 OVC080 M01/M05 A2998 RMK AO2 T10111050
Loading
Personal Weather Stations






























Interactive Weather Map New forecast layout! Learn more

10-Day Weather Forecast

Advertisements
Track Severe Weather on mobile